sensor_id;sensor_type;location;lat;lon;timestamp;temperature;humidity
74458;SHT31;62896;51.032;3.712;2023-09-18T00:00:29;20.8;94
74458;SHT31;62896;51.032;3.712;2023-09-18T00:03:49;20.8;94
74458;SHT31;62896;51.032;3.712;2023-09-18T00:07:09;20.8;94
74458;SHT31;62896;51.032;3.712;2023-09-18T00:10:29;20.8;94
74458;SHT31;62896;51.032;3.712;2023-09-18T00:13:49;20.8;94
74458;SHT31;62896;51.032;3.712;2023-09-18T00:17:09;20.8;94
74458;SHT31;62896;51.032;3.712;2023-09-18T00:20:29;20.9;93
74458;SHT31;62896;51.032;3.712;2023-09-18T00:23:49;20.9;93
74458;SHT31;62896;51.032;3.712;2023-09-18T00:27:09;20.9;93
74458;SHT31;62896;51.032;3.712;2023-09-18T00:30:29;20.9;92
74458;SHT31;62896;51.032;3.712;2023-09-18T00:33:49;20.9;92
74458;SHT31;62896;51.032;3.712;2023-09-18T00:37:09;20.9;92
74458;SHT31;62896;51.032;3.712;2023-09-18T00:40:29;20.9;93
74458;SHT31;62896;51.032;3.712;2023-09-18T00:43:49;20.9;93
74458;SHT31;62896;51.032;3.712;2023-09-18T00:47:09;20.9;93
74458;SHT31;62896;51.032;3.712;2023-09-18T00:50:29;21;92
74458;SHT31;62896;51.032;3.712;2023-09-18T00:53:49;21;92
74458;SHT31;62896;51.032;3.712;2023-09-18T00:57:09;21;92
74458;SHT31;62896;51.032;3.712;2023-09-18T01:00:29;21;93
74458;SHT31;62896;51.032;3.712;2023-09-18T01:03:49;21;93
74458;SHT31;62896;51.032;3.712;2023-09-18T01:07:09;21;93
74458;SHT31;62896;51.032;3.712;2023-09-18T01:10:30;20.9;93
74458;SHT31;62896;51.032;3.712;2023-09-18T01:13:50;20.9;93
74458;SHT31;62896;51.032;3.712;2023-09-18T01:17:09;20.9;93
74458;SHT31;62896;51.032;3.712;2023-09-18T01:20:29;20.9;94
74458;SHT31;62896;51.032;3.712;2023-09-18T01:23:49;20.9;94
74458;SHT31;62896;51.032;3.712;2023-09-18T01:27:09;20.9;94
74458;SHT31;62896;51.032;3.712;2023-09-18T01:30:29;20.8;94
74458;SHT31;62896;51.032;3.712;2023-09-18T01:33:49;20.8;94
74458;SHT31;62896;51.032;3.712;2023-09-18T01:37:09;20.8;94
74458;SHT31;62896;51.032;3.712;2023-09-18T01:40:29;20.7;94
74458;SHT31;62896;51.032;3.712;2023-09-18T01:43:49;20.7;94
74458;SHT31;62896;51.032;3.712;2023-09-18T01:47:11;20.7;94
74458;SHT31;62896;51.032;3.712;2023-09-18T01:50:29;20.6;95
74458;SHT31;62896;51.032;3.712;2023-09-18T01:53:49;20.6;95
74458;SHT31;62896;51.032;3.712;2023-09-18T01:57:09;20.6;95
74458;SHT31;62896;51.032;3.712;2023-09-18T02:00:29;20.5;96
74458;SHT31;62896;51.032;3.712;2023-09-18T02:03:49;20.5;96
74458;SHT31;62896;51.032;3.712;2023-09-18T02:07:09;20.5;96
74458;SHT31;62896;51.032;3.712;2023-09-18T02:10:29;20.4;96
74458;SHT31;62896;51.032;3.712;2023-09-18T02:13:49;20.4;96
74458;SHT31;62896;51.032;3.712;2023-09-18T02:17:09;20.4;96
74458;SHT31;62896;51.032;3.712;2023-09-18T02:20:29;20.4;96
74458;SHT31;62896;51.032;3.712;2023-09-18T02:23:49;20.4;96
74458;SHT31;62896;51.032;3.712;2023-09-18T02:27:09;20.4;96
74458;SHT31;62896;51.032;3.712;2023-09-18T02:30:29;20.4;96
74458;SHT31;62896;51.032;3.712;2023-09-18T02:33:49;20.4;96
74458;SHT31;62896;51.032;3.712;2023-09-18T02:37:09;20.4;96
74458;SHT31;62896;51.032;3.712;2023-09-18T02:40:29;20.4;96
74458;SHT31;62896;51.032;3.712;2023-09-18T02:43:49;20.4;96
74458;SHT31;62896;51.032;3.712;2023-09-18T02:47:09;20.4;96
74458;SHT31;62896;51.032;3.712;2023-09-18T02:50:29;20.3;96
74458;SHT31;62896;51.032;3.712;2023-09-18T02:53:49;20.3;96
74458;SHT31;62896;51.032;3.712;2023-09-18T02:57:09;20.3;96
74458;SHT31;62896;51.032;3.712;2023-09-18T03:00:29;20.2;95
74458;SHT31;62896;51.032;3.712;2023-09-18T03:03:49;20.2;95
74458;SHT31;62896;51.032;3.712;2023-09-18T03:07:09;20.2;95
74458;SHT31;62896;51.032;3.712;2023-09-18T03:10:32;20.1;95
74458;SHT31;62896;51.032;3.712;2023-09-18T03:13:49;20.1;95
74458;SHT31;62896;51.032;3.712;2023-09-18T03:17:09;20.1;95
74458;SHT31;62896;51.032;3.712;2023-09-18T03:20:29;20;95
74458;SHT31;62896;51.032;3.712;2023-09-18T03:23:49;20;95
74458;SHT31;62896;51.032;3.712;2023-09-18T03:27:09;20;95
74458;SHT31;62896;51.032;3.712;2023-09-18T03:30:29;19.9;95
74458;SHT31;62896;51.032;3.712;2023-09-18T03:33:49;19.9;95
74458;SHT31;62896;51.032;3.712;2023-09-18T03:37:09;19.9;95
74458;SHT31;62896;51.032;3.712;2023-09-18T03:40:29;19.9;95
74458;SHT31;62896;51.032;3.712;2023-09-18T03:43:50;19.9;95
74458;SHT31;62896;51.032;3.712;2023-09-18T03:47:09;19.9;95
74458;SHT31;62896;51.032;3.712;2023-09-18T03:50:29;19.7;95
74458;SHT31;62896;51.032;3.712;2023-09-18T03:53:49;19.7;95
74458;SHT31;62896;51.032;3.712;2023-09-18T03:57:09;19.7;95
74458;SHT31;62896;51.032;3.712;2023-09-18T04:00:29;19.6;95
74458;SHT31;62896;51.032;3.712;2023-09-18T04:03:49;19.6;95
74458;SHT31;62896;51.032;3.712;2023-09-18T04:07:09;19.6;95
74458;SHT31;62896;51.032;3.712;2023-09-18T04:10:29;19.4;95
74458;SHT31;62896;51.032;3.712;2023-09-18T04:13:49;19.4;95
74458;SHT31;62896;51.032;3.712;2023-09-18T04:17:09;19.4;95
74458;SHT31;62896;51.032;3.712;2023-09-18T04:20:29;19.3;95
74458;SHT31;62896;51.032;3.712;2023-09-18T04:23:49;19.3;95
74458;SHT31;62896;51.032;3.712;2023-09-18T04:27:09;19.3;95
74458;SHT31;62896;51.032;3.712;2023-09-18T04:30:29;19.1;95
74458;SHT31;62896;51.032;3.712;2023-09-18T04:33:49;19.1;95
74458;SHT31;62896;51.032;3.712;2023-09-18T04:37:09;19.1;95
74458;SHT31;62896;51.032;3.712;2023-09-18T04:40:29;19.1;95
74458;SHT31;62896;51.032;3.712;2023-09-18T04:43:49;19.1;95
74458;SHT31;62896;51.032;3.712;2023-09-18T04:47:09;19.1;95
74458;SHT31;62896;51.032;3.712;2023-09-18T04:50:29;19;95
74458;SHT31;62896;51.032;3.712;2023-09-18T04:53:49;19;95
74458;SHT31;62896;51.032;3.712;2023-09-18T04:57:09;19;95
74458;SHT31;62896;51.032;3.712;2023-09-18T05:00:29;18.9;95
74458;SHT31;62896;51.032;3.712;2023-09-18T05:03:49;18.9;95
74458;SHT31;62896;51.032;3.712;2023-09-18T05:07:09;18.9;95
74458;SHT31;62896;51.032;3.712;2023-09-18T05:10:29;18.7;95
74458;SHT31;62896;51.032;3.712;2023-09-18T05:13:49;18.7;95
74458;SHT31;62896;51.032;3.712;2023-09-18T05:17:09;18.7;95
74458;SHT31;62896;51.032;3.712;2023-09-18T05:20:29;18.5;95
74458;SHT31;62896;51.032;3.712;2023-09-18T05:23:49;18.5;95
74458;SHT31;62896;51.032;3.712;2023-09-18T05:27:09;18.5;95
74458;SHT31;62896;51.032;3.712;2023-09-18T05:30:30;18.4;95
74458;SHT31;62896;51.032;3.712;2023-09-18T05:33:49;18.4;95
74458;SHT31;62896;51.032;3.712;2023-09-18T05:37:09;18.4;95
74458;SHT31;62896;51.032;3.712;2023-09-18T05:40:29;18.3;95
74458;SHT31;62896;51.032;3.712;2023-09-18T05:43:49;18.3;95
74458;SHT31;62896;51.032;3.712;2023-09-18T05:47:09;18.3;95
74458;SHT31;62896;51.032;3.712;2023-09-18T05:50:29;18.2;95
74458;SHT31;62896;51.032;3.712;2023-09-18T05:53:49;18.2;95
74458;SHT31;62896;51.032;3.712;2023-09-18T05:57:09;18.2;95
74458;SHT31;62896;51.032;3.712;2023-09-18T06:00:29;18.2;96
74458;SHT31;62896;51.032;3.712;2023-09-18T06:03:49;18.2;96
74458;SHT31;62896;51.032;3.712;2023-09-18T06:07:09;18.2;96
74458;SHT31;62896;51.032;3.712;2023-09-18T06:10:29;18.1;96
74458;SHT31;62896;51.032;3.712;2023-09-18T06:13:49;18.1;96
74458;SHT31;62896;51.032;3.712;2023-09-18T06:17:09;18.1;96
74458;SHT31;62896;51.032;3.712;2023-09-18T06:20:29;18.1;95
74458;SHT31;62896;51.032;3.712;2023-09-18T06:23:49;18.1;95
74458;SHT31;62896;51.032;3.712;2023-09-18T06:27:09;18.1;95
74458;SHT31;62896;51.032;3.712;2023-09-18T06:30:29;18.1;95
74458;SHT31;62896;51.032;3.712;2023-09-18T06:33:49;18.1;95
74458;SHT31;62896;51.032;3.712;2023-09-18T06:37:09;18.1;95
74458;SHT31;62896;51.032;3.712;2023-09-18T06:40:29;18.1;95
74458;SHT31;62896;51.032;3.712;2023-09-18T06:43:49;18.1;95
74458;SHT31;62896;51.032;3.712;2023-09-18T06:47:09;18.1;95
74458;SHT31;62896;51.032;3.712;2023-09-18T06:50:29;18.1;94
74458;SHT31;62896;51.032;3.712;2023-09-18T06:53:49;18.1;94
74458;SHT31;62896;51.032;3.712;2023-09-18T06:57:09;18.1;94
74458;SHT31;62896;51.032;3.712;2023-09-18T07:00:29;18.2;94
74458;SHT31;62896;51.032;3.712;2023-09-18T07:03:49;18.2;94
74458;SHT31;62896;51.032;3.712;2023-09-18T07:07:09;18.2;94
74458;SHT31;62896;51.032;3.712;2023-09-18T07:10:29;18.4;93
74458;SHT31;62896;51.032;3.712;2023-09-18T07:13:49;18.4;93
74458;SHT31;62896;51.032;3.712;2023-09-18T07:17:09;18.4;93
74458;SHT31;62896;51.032;3.712;2023-09-18T07:20:29;18.7;92
74458;SHT31;62896;51.032;3.712;2023-09-18T07:23:49;18.7;92
74458;SHT31;62896;51.032;3.712;2023-09-18T07:27:09;18.7;92
74458;SHT31;62896;51.032;3.712;2023-09-18T07:30:29;18.8;91
74458;SHT31;62896;51.032;3.712;2023-09-18T07:33:49;18.8;91
74458;SHT31;62896;51.032;3.712;2023-09-18T07:37:09;18.8;91
74458;SHT31;62896;51.032;3.712;2023-09-18T07:40:29;19.1;90
74458;SHT31;62896;51.032;3.712;2023-09-18T07:43:49;19.1;90
74458;SHT31;62896;51.032;3.712;2023-09-18T07:47:09;19.1;90
74458;SHT31;62896;51.032;3.712;2023-09-18T07:50:29;19.4;89
74458;SHT31;62896;51.032;3.712;2023-09-18T07:53:49;19.4;89
74458;SHT31;62896;51.032;3.712;2023-09-18T07:57:09;19.4;89
74458;SHT31;62896;51.032;3.712;2023-09-18T08:00:29;19.5;88
74458;SHT31;62896;51.032;3.712;2023-09-18T08:03:49;19.5;88
74458;SHT31;62896;51.032;3.712;2023-09-18T08:07:09;19.5;88
74458;SHT31;62896;51.032;3.712;2023-09-18T08:10:29;19.4;88
74458;SHT31;62896;51.032;3.712;2023-09-18T08:13:49;19.4;88
74458;SHT31;62896;51.032;3.712;2023-09-18T08:17:09;19.4;88
74458;SHT31;62896;51.032;3.712;2023-09-18T08:20:29;19.4;88
74458;SHT31;62896;51.032;3.712;2023-09-18T08:23:49;19.4;88
74458;SHT31;62896;51.032;3.712;2023-09-18T08:27:09;19.4;88
74458;SHT31;62896;51.032;3.712;2023-09-18T08:30:29;19.4;88
74458;SHT31;62896;51.032;3.712;2023-09-18T08:33:49;19.4;88
74458;SHT31;62896;51.032;3.712;2023-09-18T08:37:09;19.4;88
74458;SHT31;62896;51.032;3.712;2023-09-18T08:40:29;19.4;88
74458;SHT31;62896;51.032;3.712;2023-09-18T08:43:49;19.4;88
74458;SHT31;62896;51.032;3.712;2023-09-18T08:47:09;19.4;88
74458;SHT31;62896;51.032;3.712;2023-09-18T08:50:29;19.7;86
74458;SHT31;62896;51.032;3.712;2023-09-18T08:53:49;19.7;86
74458;SHT31;62896;51.032;3.712;2023-09-18T08:57:09;19.7;86
74458;SHT31;62896;51.032;3.712;2023-09-18T09:00:29;20.1;85
74458;SHT31;62896;51.032;3.712;2023-09-18T09:03:49;20.1;85
74458;SHT31;62896;51.032;3.712;2023-09-18T09:07:09;20.1;85
74458;SHT31;62896;51.032;3.712;2023-09-18T09:10:29;20.3;85
74458;SHT31;62896;51.032;3.712;2023-09-18T09:13:51;20.3;85
74458;SHT31;62896;51.032;3.712;2023-09-18T09:17:09;20.3;85
74458;SHT31;62896;51.032;3.712;2023-09-18T09:20:29;20.3;84
74458;SHT31;62896;51.032;3.712;2023-09-18T09:23:50;20.3;84
74458;SHT31;62896;51.032;3.712;2023-09-18T09:27:09;20.3;84
74458;SHT31;62896;51.032;3.712;2023-09-18T09:30:29;19.9;85
74458;SHT31;62896;51.032;3.712;2023-09-18T09:33:50;19.9;85
74458;SHT31;62896;51.032;3.712;2023-09-18T09:37:09;19.9;85
74458;SHT31;62896;51.032;3.712;2023-09-18T09:40:29;19.7;86
74458;SHT31;62896;51.032;3.712;2023-09-18T09:43:49;19.7;86
74458;SHT31;62896;51.032;3.712;2023-09-18T09:47:09;19.7;86
74458;SHT31;62896;51.032;3.712;2023-09-18T09:50:29;19.9;85
74458;SHT31;62896;51.032;3.712;2023-09-18T09:53:49;19.9;85
74458;SHT31;62896;51.032;3.712;2023-09-18T09:57:09;19.9;85
74458;SHT31;62896;51.032;3.712;2023-09-18T10:00:30;20.3;84
74458;SHT31;62896;51.032;3.712;2023-09-18T10:03:49;20.3;84
74458;SHT31;62896;51.032;3.712;2023-09-18T10:07:09;20.3;84
74458;SHT31;62896;51.032;3.712;2023-09-18T10:10:30;20.8;82
74458;SHT31;62896;51.032;3.712;2023-09-18T10:13:51;20.8;82
74458;SHT31;62896;51.032;3.712;2023-09-18T10:17:12;20.8;82
74458;SHT31;62896;51.032;3.712;2023-09-18T10:20:29;21;81
74458;SHT31;62896;51.032;3.712;2023-09-18T10:23:53;21;81
74458;SHT31;62896;51.032;3.712;2023-09-18T10:27:09;21;81
74458;SHT31;62896;51.032;3.712;2023-09-18T10:30:29;21.1;81
74458;SHT31;62896;51.032;3.712;2023-09-18T10:33:49;21.1;81
74458;SHT31;62896;51.032;3.712;2023-09-18T10:37:09;21.1;81
74458;SHT31;62896;51.032;3.712;2023-09-18T10:40:29;21.2;81
74458;SHT31;62896;51.032;3.712;2023-09-18T10:43:51;21.2;81
74458;SHT31;62896;51.032;3.712;2023-09-18T10:47:10;21.2;81
74458;SHT31;62896;51.032;3.712;2023-09-18T10:50:29;21.2;81
74458;SHT31;62896;51.032;3.712;2023-09-18T10:53:49;21.2;81
74458;SHT31;62896;51.032;3.712;2023-09-18T10:57:09;21.2;81
74458;SHT31;62896;51.032;3.712;2023-09-18T11:00:30;21.7;79
74458;SHT31;62896;51.032;3.712;2023-09-18T11:03:50;21.7;79
74458;SHT31;62896;51.032;3.712;2023-09-18T11:07:12;21.7;79
74458;SHT31;62896;51.032;3.712;2023-09-18T11:10:29;22.1;76
74458;SHT31;62896;51.032;3.712;2023-09-18T11:13:50;22.1;76
74458;SHT31;62896;51.032;3.712;2023-09-18T11:17:27;22.1;76
74458;SHT31;62896;51.032;3.712;2023-09-18T11:20:29;22.6;73
74458;SHT31;62896;51.032;3.712;2023-09-18T11:23:57;22.6;73
74458;SHT31;62896;51.032;3.712;2023-09-18T11:27:09;22.6;73
74458;SHT31;62896;51.032;3.712;2023-09-18T11:30:29;23.3;71
74458;SHT31;62896;51.032;3.712;2023-09-18T11:33:49;23.3;71
74458;SHT31;62896;51.032;3.712;2023-09-18T11:37:18;23.3;71
74458;SHT31;62896;51.032;3.712;2023-09-18T11:40:30;23.3;69
74458;SHT31;62896;51.032;3.712;2023-09-18T11:43:49;23.3;69
74458;SHT31;62896;51.032;3.712;2023-09-18T11:47:10;23.3;69
74458;SHT31;62896;51.032;3.712;2023-09-18T11:50:29;23.4;69
74458;SHT31;62896;51.032;3.712;2023-09-18T11:53:51;23.4;69
74458;SHT31;62896;51.032;3.712;2023-09-18T11:57:09;23.4;69
74458;SHT31;62896;51.032;3.712;2023-09-18T12:00:29;23.9;66
74458;SHT31;62896;51.032;3.712;2023-09-18T12:03:53;23.9;66
74458;SHT31;62896;51.032;3.712;2023-09-18T12:07:09;23.9;66
74458;SHT31;62896;51.032;3.712;2023-09-18T12:10:29;24.5;65
74458;SHT31;62896;51.032;3.712;2023-09-18T12:13:50;24.5;65
74458;SHT31;62896;51.032;3.712;2023-09-18T12:17:13;24.5;65
74458;SHT31;62896;51.032;3.712;2023-09-18T12:20:29;25.2;62
74458;SHT31;62896;51.032;3.712;2023-09-18T12:23:49;25.2;62
74458;SHT31;62896;51.032;3.712;2023-09-18T12:27:09;25.2;62
74458;SHT31;62896;51.032;3.712;2023-09-18T12:30:29;25;62
74458;SHT31;62896;51.032;3.712;2023-09-18T12:33:49;25;62
74458;SHT31;62896;51.032;3.712;2023-09-18T12:37:09;25;62
74458;SHT31;62896;51.032;3.712;2023-09-18T12:40:30;24.4;63
74458;SHT31;62896;51.032;3.712;2023-09-18T12:43:49;24.4;63
74458;SHT31;62896;51.032;3.712;2023-09-18T12:47:09;24.4;63
74458;SHT31;62896;51.032;3.712;2023-09-18T12:50:29;25.5;60
74458;SHT31;62896;51.032;3.712;2023-09-18T12:53:58;25.5;60
74458;SHT31;62896;51.032;3.712;2023-09-18T12:57:10;25.5;60
74458;SHT31;62896;51.032;3.712;2023-09-18T13:00:29;25.9;59
74458;SHT31;62896;51.032;3.712;2023-09-18T13:03:53;25.9;59
74458;SHT31;62896;51.032;3.712;2023-09-18T13:07:10;25.9;59
74458;SHT31;62896;51.032;3.712;2023-09-18T13:10:40;24.8;61
74458;SHT31;62896;51.032;3.712;2023-09-18T13:13:56;24.8;61
74458;SHT31;62896;51.032;3.712;2023-09-18T13:17:09;24.8;61
74458;SHT31;62896;51.032;3.712;2023-09-18T13:20:29;23.5;65
74458;SHT31;62896;51.032;3.712;2023-09-18T13:23:49;23.5;65
74458;SHT31;62896;51.032;3.712;2023-09-18T13:27:10;23.5;65
74458;SHT31;62896;51.032;3.712;2023-09-18T13:30:30;18.6;90
74458;SHT31;62896;51.032;3.712;2023-09-18T13:40:29;16.7;100
74458;SHT31;62896;51.032;3.712;2023-09-18T13:43:49;16.7;100
74458;SHT31;62896;51.032;3.712;2023-09-18T13:47:09;16.7;100
74458;SHT31;62896;51.032;3.712;2023-09-18T13:50:29;17;100
74458;SHT31;62896;51.032;3.712;2023-09-18T13:53:49;17;100
74458;SHT31;62896;51.032;3.712;2023-09-18T13:57:09;17;100
74458;SHT31;62896;51.032;3.712;2023-09-18T14:00:30;17.3;100
74458;SHT31;62896;51.032;3.712;2023-09-18T14:03:49;17.3;100
74458;SHT31;62896;51.032;3.712;2023-09-18T14:07:10;17.3;100
74458;SHT31;62896;51.032;3.712;2023-09-18T14:10:29;18.6;100
74458;SHT31;62896;51.032;3.712;2023-09-18T14:13:50;18.6;100
74458;SHT31;62896;51.032;3.712;2023-09-18T14:17:10;18.6;100
74458;SHT31;62896;51.032;3.712;2023-09-18T14:20:29;19.2;100
74458;SHT31;62896;51.032;3.712;2023-09-18T14:23:50;19.2;100
74458;SHT31;62896;51.032;3.712;2023-09-18T14:27:10;19.2;100
74458;SHT31;62896;51.032;3.712;2023-09-18T14:30:30;20.1;98
74458;SHT31;62896;51.032;3.712;2023-09-18T14:33:50;20.1;98
74458;SHT31;62896;51.032;3.712;2023-09-18T14:37:09;20.1;98
74458;SHT31;62896;51.032;3.712;2023-09-18T14:40:30;20.8;95
74458;SHT31;62896;51.032;3.712;2023-09-18T14:43:50;20.8;95
74458;SHT31;62896;51.032;3.712;2023-09-18T14:47:10;20.8;95
74458;SHT31;62896;51.032;3.712;2023-09-18T14:50:30;20.5;94
74458;SHT31;62896;51.032;3.712;2023-09-18T14:53:49;20.5;94
74458;SHT31;62896;51.032;3.712;2023-09-18T14:57:10;20.5;94
74458;SHT31;62896;51.032;3.712;2023-09-18T15:00:30;21.9;91
74458;SHT31;62896;51.032;3.712;2023-09-18T15:03:50;21.9;91
74458;SHT31;62896;51.032;3.712;2023-09-18T15:07:10;21.9;91
74458;SHT31;62896;51.032;3.712;2023-09-18T15:10:30;22.7;84
74458;SHT31;62896;51.032;3.712;2023-09-18T15:13:50;22.7;84
74458;SHT31;62896;51.032;3.712;2023-09-18T15:17:10;22.7;84
74458;SHT31;62896;51.032;3.712;2023-09-18T15:20:30;24;72
74458;SHT31;62896;51.032;3.712;2023-09-18T15:23:50;24;72
74458;SHT31;62896;51.032;3.712;2023-09-18T15:27:10;24;72
74458;SHT31;62896;51.032;3.712;2023-09-18T15:30:30;25.1;62
74458;SHT31;62896;51.032;3.712;2023-09-18T15:33:50;25.1;62
74458;SHT31;62896;51.032;3.712;2023-09-18T15:37:10;25.1;62
74458;SHT31;62896;51.032;3.712;2023-09-18T15:40:30;23.2;66
74458;SHT31;62896;51.032;3.712;2023-09-18T15:43:50;23.2;66
74458;SHT31;62896;51.032;3.712;2023-09-18T15:47:10;23.2;66
74458;SHT31;62896;51.032;3.712;2023-09-18T15:50:30;22.1;71
74458;SHT31;62896;51.032;3.712;2023-09-18T15:53:50;22.1;71
74458;SHT31;62896;51.032;3.712;2023-09-18T15:57:10;22.1;71
74458;SHT31;62896;51.032;3.712;2023-09-18T16:00:30;21.8;71
74458;SHT31;62896;51.032;3.712;2023-09-18T16:03:50;21.8;71
74458;SHT31;62896;51.032;3.712;2023-09-18T16:07:10;21.8;71
74458;SHT31;62896;51.032;3.712;2023-09-18T16:10:30;21.5;72
74458;SHT31;62896;51.032;3.712;2023-09-18T16:13:50;21.5;72
74458;SHT31;62896;51.032;3.712;2023-09-18T16:17:10;21.5;72
74458;SHT31;62896;51.032;3.712;2023-09-18T16:20:30;21;71
74458;SHT31;62896;51.032;3.712;2023-09-18T16:23:50;21;71
74458;SHT31;62896;51.032;3.712;2023-09-18T16:27:10;21;71
74458;SHT31;62896;51.032;3.712;2023-09-18T16:30:30;20.8;71
74458;SHT31;62896;51.032;3.712;2023-09-18T16:33:50;20.8;71
74458;SHT31;62896;51.032;3.712;2023-09-18T16:37:10;20.8;71
74458;SHT31;62896;51.032;3.712;2023-09-18T16:40:30;20.8;72
74458;SHT31;62896;51.032;3.712;2023-09-18T16:43:50;20.8;72
74458;SHT31;62896;51.032;3.712;2023-09-18T16:47:10;20.8;72
74458;SHT31;62896;51.032;3.712;2023-09-18T16:50:30;20.7;71
74458;SHT31;62896;51.032;3.712;2023-09-18T16:53:50;20.7;71
74458;SHT31;62896;51.032;3.712;2023-09-18T16:57:10;20.7;71
74458;SHT31;62896;51.032;3.712;2023-09-18T17:00:30;20.6;71
74458;SHT31;62896;51.032;3.712;2023-09-18T17:03:50;20.6;71
74458;SHT31;62896;51.032;3.712;2023-09-18T17:07:10;20.6;71
74458;SHT31;62896;51.032;3.712;2023-09-18T17:10:30;20.3;72
74458;SHT31;62896;51.032;3.712;2023-09-18T17:13:50;20.3;72
74458;SHT31;62896;51.032;3.712;2023-09-18T17:17:10;20.3;72
74458;SHT31;62896;51.032;3.712;2023-09-18T17:20:30;20;71
74458;SHT31;62896;51.032;3.712;2023-09-18T17:23:50;20;71
74458;SHT31;62896;51.032;3.712;2023-09-18T17:27:10;20;71
74458;SHT31;62896;51.032;3.712;2023-09-18T17:30:30;19.7;73
74458;SHT31;62896;51.032;3.712;2023-09-18T17:33:50;19.7;73
74458;SHT31;62896;51.032;3.712;2023-09-18T17:37:10;19.7;73
74458;SHT31;62896;51.032;3.712;2023-09-18T17:40:30;19.5;73
74458;SHT31;62896;51.032;3.712;2023-09-18T17:43:50;19.5;73
74458;SHT31;62896;51.032;3.712;2023-09-18T17:47:10;19.5;73
74458;SHT31;62896;51.032;3.712;2023-09-18T17:50:30;19.3;73
74458;SHT31;62896;51.032;3.712;2023-09-18T17:53:50;19.3;73
74458;SHT31;62896;51.032;3.712;2023-09-18T17:57:10;19.3;73
74458;SHT31;62896;51.032;3.712;2023-09-18T18:00:30;19;74
74458;SHT31;62896;51.032;3.712;2023-09-18T18:03:50;19;74
74458;SHT31;62896;51.032;3.712;2023-09-18T18:07:10;19;74
74458;SHT31;62896;51.032;3.712;2023-09-18T18:10:30;18.7;73
74458;SHT31;62896;51.032;3.712;2023-09-18T18:13:50;18.7;73
74458;SHT31;62896;51.032;3.712;2023-09-18T18:17:10;18.7;73
74458;SHT31;62896;51.032;3.712;2023-09-18T18:20:30;18.5;74
74458;SHT31;62896;51.032;3.712;2023-09-18T18:23:50;18.5;74
74458;SHT31;62896;51.032;3.712;2023-09-18T18:27:10;18.5;74
74458;SHT31;62896;51.032;3.712;2023-09-18T18:30:30;18.3;74
74458;SHT31;62896;51.032;3.712;2023-09-18T18:33:50;18.3;74
74458;SHT31;62896;51.032;3.712;2023-09-18T18:37:10;18.3;74
74458;SHT31;62896;51.032;3.712;2023-09-18T18:40:30;18.1;75
74458;SHT31;62896;51.032;3.712;2023-09-18T18:43:50;18.1;75
74458;SHT31;62896;51.032;3.712;2023-09-18T18:47:10;18.1;75
74458;SHT31;62896;51.032;3.712;2023-09-18T18:50:30;17.8;76
74458;SHT31;62896;51.032;3.712;2023-09-18T18:53:50;17.8;76
74458;SHT31;62896;51.032;3.712;2023-09-18T18:57:10;17.8;76
74458;SHT31;62896;51.032;3.712;2023-09-18T19:00:30;17.7;78
74458;SHT31;62896;51.032;3.712;2023-09-18T19:03:50;17.7;78
74458;SHT31;62896;51.032;3.712;2023-09-18T19:07:10;17.7;78
74458;SHT31;62896;51.032;3.712;2023-09-18T19:10:30;17.5;78
74458;SHT31;62896;51.032;3.712;2023-09-18T19:13:50;17.5;78
74458;SHT31;62896;51.032;3.712;2023-09-18T19:17:10;17.5;78
74458;SHT31;62896;51.032;3.712;2023-09-18T19:20:31;17.3;79
74458;SHT31;62896;51.032;3.712;2023-09-18T19:23:50;17.3;79
74458;SHT31;62896;51.032;3.712;2023-09-18T19:27:10;17.3;79
74458;SHT31;62896;51.032;3.712;2023-09-18T19:30:30;17.2;80
74458;SHT31;62896;51.032;3.712;2023-09-18T19:33:50;17.2;80
74458;SHT31;62896;51.032;3.712;2023-09-18T19:37:10;17.2;80
74458;SHT31;62896;51.032;3.712;2023-09-18T19:40:30;17.1;80
74458;SHT31;62896;51.032;3.712;2023-09-18T19:43:50;17.1;80
74458;SHT31;62896;51.032;3.712;2023-09-18T19:47:10;17.1;80
74458;SHT31;62896;51.032;3.712;2023-09-18T19:50:30;17;81
74458;SHT31;62896;51.032;3.712;2023-09-18T19:53:50;17;81
74458;SHT31;62896;51.032;3.712;2023-09-18T19:57:10;17;81
74458;SHT31;62896;51.032;3.712;2023-09-18T20:00:30;16.9;81
74458;SHT31;62896;51.032;3.712;2023-09-18T20:03:50;16.9;81
74458;SHT31;62896;51.032;3.712;2023-09-18T20:07:10;16.9;81
74458;SHT31;62896;51.032;3.712;2023-09-18T20:10:30;16.8;82
74458;SHT31;62896;51.032;3.712;2023-09-18T20:13:50;16.8;82
74458;SHT31;62896;51.032;3.712;2023-09-18T20:17:10;16.8;82
74458;SHT31;62896;51.032;3.712;2023-09-18T20:20:30;16.8;82
74458;SHT31;62896;51.032;3.712;2023-09-18T20:23:50;16.8;82
74458;SHT31;62896;51.032;3.712;2023-09-18T20:27:12;16.8;82
74458;SHT31;62896;51.032;3.712;2023-09-18T20:30:30;16.7;82
74458;SHT31;62896;51.032;3.712;2023-09-18T20:33:50;16.7;82
74458;SHT31;62896;51.032;3.712;2023-09-18T20:37:10;16.7;82
74458;SHT31;62896;51.032;3.712;2023-09-18T20:40:30;16.6;83
74458;SHT31;62896;51.032;3.712;2023-09-18T20:43:50;16.6;83
74458;SHT31;62896;51.032;3.712;2023-09-18T20:47:10;16.6;83
74458;SHT31;62896;51.032;3.712;2023-09-18T20:50:30;16.5;83
74458;SHT31;62896;51.032;3.712;2023-09-18T20:53:50;16.5;83
74458;SHT31;62896;51.032;3.712;2023-09-18T20:57:10;16.5;83
74458;SHT31;62896;51.032;3.712;2023-09-18T21:00:30;16.5;83
74458;SHT31;62896;51.032;3.712;2023-09-18T21:03:50;16.5;83
74458;SHT31;62896;51.032;3.712;2023-09-18T21:07:10;16.5;83
74458;SHT31;62896;51.032;3.712;2023-09-18T21:10:30;16.4;84
74458;SHT31;62896;51.032;3.712;2023-09-18T21:13:50;16.4;84
74458;SHT31;62896;51.032;3.712;2023-09-18T21:17:10;16.4;84
74458;SHT31;62896;51.032;3.712;2023-09-18T21:20:30;16.3;84
74458;SHT31;62896;51.032;3.712;2023-09-18T21:23:50;16.3;84
74458;SHT31;62896;51.032;3.712;2023-09-18T21:27:10;16.3;84
74458;SHT31;62896;51.032;3.712;2023-09-18T21:30:30;16.2;85
74458;SHT31;62896;51.032;3.712;2023-09-18T21:33:50;16.2;85
74458;SHT31;62896;51.032;3.712;2023-09-18T21:37:10;16.2;85
74458;SHT31;62896;51.032;3.712;2023-09-18T21:40:30;16.2;85
74458;SHT31;62896;51.032;3.712;2023-09-18T21:43:50;16.2;85
74458;SHT31;62896;51.032;3.712;2023-09-18T21:47:10;16.2;85
74458;SHT31;62896;51.032;3.712;2023-09-18T21:50:30;16.2;85
74458;SHT31;62896;51.032;3.712;2023-09-18T21:53:50;16.2;85
74458;SHT31;62896;51.032;3.712;2023-09-18T21:57:10;16.2;85
74458;SHT31;62896;51.032;3.712;2023-09-18T22:00:30;16.1;84
74458;SHT31;62896;51.032;3.712;2023-09-18T22:03:50;16.1;84
74458;SHT31;62896;51.032;3.712;2023-09-18T22:07:10;16.1;84
74458;SHT31;62896;51.032;3.712;2023-09-18T22:10:30;16.1;83
74458;SHT31;62896;51.032;3.712;2023-09-18T22:13:50;16.1;83
74458;SHT31;62896;51.032;3.712;2023-09-18T22:17:10;16.1;83
74458;SHT31;62896;51.032;3.712;2023-09-18T22:20:30;16;83
74458;SHT31;62896;51.032;3.712;2023-09-18T22:23:50;16;83
74458;SHT31;62896;51.032;3.712;2023-09-18T22:27:10;16;83
74458;SHT31;62896;51.032;3.712;2023-09-18T22:30:30;15.9;81
74458;SHT31;62896;51.032;3.712;2023-09-18T22:33:50;15.9;81
74458;SHT31;62896;51.032;3.712;2023-09-18T22:37:10;15.9;81